Terminal Aerodrome Forecast
Issued by NWS Hastings, NE

Home | Current Version | Previous Version | Text Only | Print | Product List | Glossary On
Versions: 1 2 3 4 5 6 7 8 9 10 11 12 13 14 15 16 17 18 19 20 21 22 23 24
000
FTUS43 KGID 241720
TAFGRI
TAF
KGRI 241720Z 2418/2518 17019G25KT P6SM SKC
     FM250500 18016G23KT P6SM BKN250
     FM250900 20011KT P6SM BKN250
     FM251500 24016G22KT P6SM SCT250=

USA.gov is the U.S. government's official web portal to all federal, state and local government web resources and services.